[source: ADDS]
METAR
EDVE 030320Z 11003KT CAVOK 12/08 Q1008

TAF EDVE 021700Z 0218/0221 VRB03KT CAVOK EDDV 030320Z 09005KT CAVOK 13/10 Q1007

TAF EDDV 022300Z 0300/0324 10003KT CAVOK TEMPO 0308/0324 16008KT FEW065CB PROB30 TEMPO 0308/0310 22010KT TSRA PROB30 TEMPO 0321/0322 TSRA ETHS 030220Z 09001KT 9999 BKN180 11/07 Q1008 BLU

TAF AMD ETHS 022220Z 0223/0308 09002KT 9999 NSW BKN260 ETHC 030220Z 07003KT 9999 BKN220 15/08 Q1008 BLU+

TAF EDVK 021700Z 0218/0303 09005KT CAVOK BECMG 0218/0221 15004KT
TAF
TAF EDVE 021700Z 0218/0221 VRB03KT CAVOK

TAF EDDV 022300Z 0300/0324 10003KT CAVOK TEMPO 0308/0324 16008KT FEW065CB PROB30 TEMPO 0308/0310 22010KT TSRA PROB30 TEMPO 0321/0322 TSRA

TAF AMD ETHS 022220Z 0223/0308 09002KT 9999 NSW BKN260

TAF EDVK 021700Z 0218/0303 09005KT CAVOK BECMG 0218/0221 15004KT

SR / SS: 03:00 / 19:31 UTC (EDVE 2020-06-03)
Mitgliederversammlung als Online-Konferenz am 28.05.2020. +++ Flugbetrieb und Ausbildungsbetrieb unter Auflagen wieder möglich. +++ Gero steht ebenfalls als Fluglehrer zur Verfügung! Vielen Dank an Gero und viel Erfolg beim Ausbilden. +++ Ilya hat die Theorieprüfung bestanden! Herzlichen Glückwunsch und weiterhin viel Erfolg für die restliche Ausbildung! +++ Hallo Felix, herzlich Willkommen bei der FFG und viel Erfolg für deine Pilotenausbildung! +++ Jens verstärkt als neuer Fluglehrer ab sofort unser FFG-Fluglehrer-Team. Glückwunsch und viel Erfolg beim Ausbilden! +++ Wir beglückwünschen Sebastian zur bestandenen PPL-Theorie-Prüfung! Weiterhin viel Erfolg bei der Ausbildung! +++ Stefan hat die praktische Prüfung bestanden! Herzlichen Glückwunsch und Always Happy Landings! +++ Ein weiteres Mitglied hat die Prüfung zum Fluglehrer gemeistert. Glückwunsch Nico und viel Erfolg beim Ausbilden! +++ Florian Hansmann ist ab sofort als Fluglehrer für die FFG tätig! Danke für das Engagement und viel Spaß mit deinen zukünftigen Schülern! +++ Willkommen im Verein Michael und viel Erfolg für deine Ausbildung! +++ Herzlich Willkommen bei der FFG Jens!

wenig -> mittel -> viel

Professionelle Piloten arbeiten mit Checkliste
Ausdrucken und abarbeiten! Vorbereitete Links helfen bei der Beschaffung der notwendigen Informationen.

Weiterlesen ...

Hier gibt es die AIP mit allen erforderlichen Karten die im Abo der FFG liegen zum Download für unsere Mitglieder.

Letztes NOTAM EDVE
von 25.05.2020 0858Z bis 23.08.2020 2359Z
TWY H CLSD.

Letztes NOTAM EDBC
von 20.05.2020 1201Z bis 18.08.2020 2359Z
ALL VFR AND IFR PROC TEMPO SUSPENDED. USABLE ONLY FOR FLIGHT VALIDATION.

Letztes NOTAM EDVM
von 25.06.2019 0700Z bis PERM
SAFETYZONE FOR PJE ESTABLISHED ON APRON 1, TWY D BTN TWY G AND B AND TWY B SOUTH TWY D. DURING PJE ACT START UP OF ENGINES NOT PERMITTED. ACTUAL [more]

Letztes NOTAM EDDV
von 15.06.2020 0800Z bis 17.06.2020 1100Z
DUE TO MAINT OF SAS DVOR/DME THE FLW CHANGES TO STAR OCCUR: AMEND SAS DVOR/DME TO READ SAS INT. PSN AND HLDG REMAIN UNCHANGED. HLDG S [more]

Letztes NOTAM EDVK
von 03.06.2020 0700Z bis 22.06.2020 1830Z
HOURS OF OPS CHANGED DUE TO CORONA PANDEMIC JUN 03 - JUN 22, MO - SUN AND HOL 0700 - 1830 UTC, OTHER TIMES PPR FOR : -COMMERCIAL FLIG [more]

Letztes NOTAM EDVS
von 05.05.2020 0723Z bis 03.08.2020 1900Z
AD AVBL ONLY FOR HOMEBASED PILOTS.

          aerodata150     Radio38